sensor_id;sensor_type;location;lat;lon;timestamp;temperature;humidity
62363;DHT22;48396;48.426;1.500;2023-02-01T00:02:21;11.10;97.10
62363;DHT22;48396;48.426;1.500;2023-02-01T00:04:47;11.10;97.10
62363;DHT22;48396;48.426;1.500;2023-02-01T00:07:13;11.10;97.20
62363;DHT22;48396;48.426;1.500;2023-02-01T00:09:39;11.10;97.20
62363;DHT22;48396;48.426;1.500;2023-02-01T00:12:05;11.10;97.20
62363;DHT22;48396;48.426;1.500;2023-02-01T00:14:30;11.10;97.20
62363;DHT22;48396;48.426;1.500;2023-02-01T00:17:04;11.10;97.40
62363;DHT22;48396;48.426;1.500;2023-02-01T00:19:31;11.10;97.30
62363;DHT22;48396;48.426;1.500;2023-02-01T00:21:57;11.10;97.30
62363;DHT22;48396;48.426;1.500;2023-02-01T00:24:23;11.10;97.20
62363;DHT22;48396;48.426;1.500;2023-02-01T00:26:49;11.30;96.90
62363;DHT22;48396;48.426;1.500;2023-02-01T00:29:17;11.20;96.90
62363;DHT22;48396;48.426;1.500;2023-02-01T00:31:44;11.10;97.10
62363;DHT22;48396;48.426;1.500;2023-02-01T00:34:14;11.10;97.10
62363;DHT22;48396;48.426;1.500;2023-02-01T00:36:41;11.20;97.00
62363;DHT22;48396;48.426;1.500;2023-02-01T00:39:08;11.20;96.90
62363;DHT22;48396;48.426;1.500;2023-02-01T00:41:34;11.20;96.80
62363;DHT22;48396;48.426;1.500;2023-02-01T00:44:00;11.30;96.80
62363;DHT22;48396;48.426;1.500;2023-02-01T00:46:26;11.30;96.70
62363;DHT22;48396;48.426;1.500;2023-02-01T00:48:52;11.30;96.70
62363;DHT22;48396;48.426;1.500;2023-02-01T00:51:22;11.20;96.90
62363;DHT22;48396;48.426;1.500;2023-02-01T00:53:48;11.20;96.90
62363;DHT22;48396;48.426;1.500;2023-02-01T00:56:14;11.10;97.10
62363;DHT22;48396;48.426;1.500;2023-02-01T00:58:40;11.00;97.10
62363;DHT22;48396;48.426;1.500;2023-02-01T01:01:18;11.10;97.10
62363;DHT22;48396;48.426;1.500;2023-02-01T01:03:47;11.10;97.00
62363;DHT22;48396;48.426;1.500;2023-02-01T01:06:15;11.20;96.90
62363;DHT22;48396;48.426;1.500;2023-02-01T01:08:41;11.20;96.70
62363;DHT22;48396;48.426;1.500;2023-02-01T01:11:10;11.20;96.70
62363;DHT22;48396;48.426;1.500;2023-02-01T01:13:36;11.30;96.60
62363;DHT22;48396;48.426;1.500;2023-02-01T01:16:04;11.30;96.50
62363;DHT22;48396;48.426;1.500;2023-02-01T01:18:31;11.30;96.40
62363;DHT22;48396;48.426;1.500;2023-02-01T01:20:57;11.30;96.50
62363;DHT22;48396;48.426;1.500;2023-02-01T01:23:23;11.30;96.50
62363;DHT22;48396;48.426;1.500;2023-02-01T01:25:49;11.30;96.50
62363;DHT22;48396;48.426;1.500;2023-02-01T01:28:15;11.30;96.50
62363;DHT22;48396;48.426;1.500;2023-02-01T01:30:41;11.30;96.50
62363;DHT22;48396;48.426;1.500;2023-02-01T01:33:07;11.30;96.40
62363;DHT22;48396;48.426;1.500;2023-02-01T01:35:33;11.20;96.60
62363;DHT22;48396;48.426;1.500;2023-02-01T01:37:59;11.10;96.70
62363;DHT22;48396;48.426;1.500;2023-02-01T01:40:26;11.10;96.80
62363;DHT22;48396;48.426;1.500;2023-02-01T01:42:52;11.20;96.70
62363;DHT22;48396;48.426;1.500;2023-02-01T01:45:33;11.20;96.60
62363;DHT22;48396;48.426;1.500;2023-02-01T01:48:25;11.20;96.70
62363;DHT22;48396;48.426;1.500;2023-02-01T01:51:00;11.10;96.80
62363;DHT22;48396;48.426;1.500;2023-02-01T01:53:31;11.10;96.80
62363;DHT22;48396;48.426;1.500;2023-02-01T01:55:59;11.00;96.80
62363;DHT22;48396;48.426;1.500;2023-02-01T01:58:28;11.00;96.80
62363;DHT22;48396;48.426;1.500;2023-02-01T02:00:55;11.00;96.80
62363;DHT22;48396;48.426;1.500;2023-02-01T02:03:27;11.00;96.90
62363;DHT22;48396;48.426;1.500;2023-02-01T02:05:57;10.90;96.90
62363;DHT22;48396;48.426;1.500;2023-02-01T02:08:25;10.90;96.80
62363;DHT22;48396;48.426;1.500;2023-02-01T02:10:52;10.90;96.80
62363;DHT22;48396;48.426;1.500;2023-02-01T02:13:38;10.80;96.90
62363;DHT22;48396;48.426;1.500;2023-02-01T02:16:54;10.90;96.90
62363;DHT22;48396;48.426;1.500;2023-02-01T02:44:39;11.00;96.30
62363;DHT22;48396;48.426;1.500;2023-02-01T02:47:45;10.80;96.20
62363;DHT22;48396;48.426;1.500;2023-02-01T02:50:36;10.80;96.60
62363;DHT22;48396;48.426;1.500;2023-02-01T02:53:47;10.90;96.20
62363;DHT22;48396;48.426;1.500;2023-02-01T02:56:29;10.80;96.20
62363;DHT22;48396;48.426;1.500;2023-02-01T02:59:17;10.90;96.10
62363;DHT22;48396;48.426;1.500;2023-02-01T03:02:02;10.90;96.00
62363;DHT22;48396;48.426;1.500;2023-02-01T03:04:46;10.90;96.00
62363;DHT22;48396;48.426;1.500;2023-02-01T03:07:46;10.90;95.90
62363;DHT22;48396;48.426;1.500;2023-02-01T03:12:50;11.00;95.80
62363;DHT22;48396;48.426;1.500;2023-02-01T03:15:54;11.00;95.80
62363;DHT22;48396;48.426;1.500;2023-02-01T03:21:59;11.10;95.30
62363;DHT22;48396;48.426;1.500;2023-02-01T03:24:34;11.10;95.10
62363;DHT22;48396;48.426;1.500;2023-02-01T03:30:05;11.10;94.80
62363;DHT22;48396;48.426;1.500;2023-02-01T03:32:33;11.10;94.70
62363;DHT22;48396;48.426;1.500;2023-02-01T03:35:25;11.10;94.70
62363;DHT22;48396;48.426;1.500;2023-02-01T03:37:54;11.00;94.60
62363;DHT22;48396;48.426;1.500;2023-02-01T03:46:25;11.10;94.10
62363;DHT22;48396;48.426;1.500;2023-02-01T03:48:54;11.10;94.30
62363;DHT22;48396;48.426;1.500;2023-02-01T03:51:21;11.10;94.20
62363;DHT22;48396;48.426;1.500;2023-02-01T03:53:49;11.10;94.00
62363;DHT22;48396;48.426;1.500;2023-02-01T03:56:18;11.10;94.00
62363;DHT22;48396;48.426;1.500;2023-02-01T03:58:47;11.20;93.70
62363;DHT22;48396;48.426;1.500;2023-02-01T04:01:25;11.20;93.80
62363;DHT22;48396;48.426;1.500;2023-02-01T04:03:52;11.20;93.70
62363;DHT22;48396;48.426;1.500;2023-02-01T04:06:17;11.20;93.70
62363;DHT22;48396;48.426;1.500;2023-02-01T04:08:43;11.30;93.60
62363;DHT22;48396;48.426;1.500;2023-02-01T04:11:09;11.30;93.50
62363;DHT22;48396;48.426;1.500;2023-02-01T04:13:35;11.30;93.40
62363;DHT22;48396;48.426;1.500;2023-02-01T04:16:00;11.30;93.20
62363;DHT22;48396;48.426;1.500;2023-02-01T04:18:26;11.40;93.10
62363;DHT22;48396;48.426;1.500;2023-02-01T04:20:52;11.40;93.00
62363;DHT22;48396;48.426;1.500;2023-02-01T04:23:18;11.40;92.80
62363;DHT22;48396;48.426;1.500;2023-02-01T04:25:43;11.40;92.70
62363;DHT22;48396;48.426;1.500;2023-02-01T04:28:09;11.30;92.30
62363;DHT22;48396;48.426;1.500;2023-02-01T04:30:35;11.30;92.10
62363;DHT22;48396;48.426;1.500;2023-02-01T04:33:01;11.30;92.30
62363;DHT22;48396;48.426;1.500;2023-02-01T04:35:29;11.30;92.10
62363;DHT22;48396;48.426;1.500;2023-02-01T04:37:54;11.20;91.90
62363;DHT22;48396;48.426;1.500;2023-02-01T04:40:20;11.20;91.90
62363;DHT22;48396;48.426;1.500;2023-02-01T04:42:46;11.20;91.80
62363;DHT22;48396;48.426;1.500;2023-02-01T04:45:11;11.30;91.80
62363;DHT22;48396;48.426;1.500;2023-02-01T04:47:37;11.30;91.80
62363;DHT22;48396;48.426;1.500;2023-02-01T04:50:03;11.30;91.50
62363;DHT22;48396;48.426;1.500;2023-02-01T04:52:29;11.30;91.50
62363;DHT22;48396;48.426;1.500;2023-02-01T04:54:55;11.20;91.40
62363;DHT22;48396;48.426;1.500;2023-02-01T04:57:23;11.30;91.30
62363;DHT22;48396;48.426;1.500;2023-02-01T04:59:48;11.20;90.80
62363;DHT22;48396;48.426;1.500;2023-02-01T05:02:14;11.20;91.10
62363;DHT22;48396;48.426;1.500;2023-02-01T05:04:40;11.20;91.00
62363;DHT22;48396;48.426;1.500;2023-02-01T05:07:06;11.20;91.00
62363;DHT22;48396;48.426;1.500;2023-02-01T05:09:31;11.20;90.70
62363;DHT22;48396;48.426;1.500;2023-02-01T05:11:57;11.10;90.80
62363;DHT22;48396;48.426;1.500;2023-02-01T05:14:41;11.10;90.80
62363;DHT22;48396;48.426;1.500;2023-02-01T05:17:07;11.20;90.70
62363;DHT22;48396;48.426;1.500;2023-02-01T05:19:33;11.20;90.60
62363;DHT22;48396;48.426;1.500;2023-02-01T05:21:59;11.20;90.40
62363;DHT22;48396;48.426;1.500;2023-02-01T05:24:24;11.20;90.30
62363;DHT22;48396;48.426;1.500;2023-02-01T05:26:52;11.20;90.50
62363;DHT22;48396;48.426;1.500;2023-02-01T05:29:18;11.20;90.40
62363;DHT22;48396;48.426;1.500;2023-02-01T05:31:45;11.30;90.30
62363;DHT22;48396;48.426;1.500;2023-02-01T05:34:11;11.30;90.20
62363;DHT22;48396;48.426;1.500;2023-02-01T05:36:37;11.30;90.10
62363;DHT22;48396;48.426;1.500;2023-02-01T05:39:03;11.30;89.90
62363;DHT22;48396;48.426;1.500;2023-02-01T05:41:29;11.30;90.00
62363;DHT22;48396;48.426;1.500;2023-02-01T05:43:55;11.30;89.70
62363;DHT22;48396;48.426;1.500;2023-02-01T05:46:21;11.30;89.70
62363;DHT22;48396;48.426;1.500;2023-02-01T05:48:46;11.30;89.70
62363;DHT22;48396;48.426;1.500;2023-02-01T05:51:13;11.20;89.50
62363;DHT22;48396;48.426;1.500;2023-02-01T05:53:39;11.20;89.40
62363;DHT22;48396;48.426;1.500;2023-02-01T05:56:05;11.20;89.40
62363;DHT22;48396;48.426;1.500;2023-02-01T05:58:31;11.20;89.30
62363;DHT22;48396;48.426;1.500;2023-02-01T06:00:59;11.20;89.30
62363;DHT22;48396;48.426;1.500;2023-02-01T06:03:26;11.20;89.50
62363;DHT22;48396;48.426;1.500;2023-02-01T06:05:52;11.20;89.50
62363;DHT22;48396;48.426;1.500;2023-02-01T06:08:17;11.20;89.60
62363;DHT22;48396;48.426;1.500;2023-02-01T06:10:43;11.10;89.30
62363;DHT22;48396;48.426;1.500;2023-02-01T06:13:09;11.20;89.40
62363;DHT22;48396;48.426;1.500;2023-02-01T06:15:35;11.10;89.30
62363;DHT22;48396;48.426;1.500;2023-02-01T06:18:03;11.10;89.30
62363;DHT22;48396;48.426;1.500;2023-02-01T06:20:29;11.00;89.00
62363;DHT22;48396;48.426;1.500;2023-02-01T06:22:55;11.00;89.20
62363;DHT22;48396;48.426;1.500;2023-02-01T06:25:21;11.10;89.30
62363;DHT22;48396;48.426;1.500;2023-02-01T06:27:47;11.00;89.30
62363;DHT22;48396;48.426;1.500;2023-02-01T06:30:14;11.00;89.50
62363;DHT22;48396;48.426;1.500;2023-02-01T06:32:40;11.10;89.20
62363;DHT22;48396;48.426;1.500;2023-02-01T06:35:09;11.20;89.10
62363;DHT22;48396;48.426;1.500;2023-02-01T06:37:41;11.10;89.00
62363;DHT22;48396;48.426;1.500;2023-02-01T06:40:08;11.10;89.10
62363;DHT22;48396;48.426;1.500;2023-02-01T06:42:34;11.10;88.90
62363;DHT22;48396;48.426;1.500;2023-02-01T06:45:00;11.10;89.00
62363;DHT22;48396;48.426;1.500;2023-02-01T06:47:25;11.10;89.40
62363;DHT22;48396;48.426;1.500;2023-02-01T06:49:52;11.20;89.20
62363;DHT22;48396;48.426;1.500;2023-02-01T06:52:18;11.20;89.00
62363;DHT22;48396;48.426;1.500;2023-02-01T06:54:44;11.20;88.90
62363;DHT22;48396;48.426;1.500;2023-02-01T06:57:09;11.20;88.90
62363;DHT22;48396;48.426;1.500;2023-02-01T06:59:35;11.20;88.80
62363;DHT22;48396;48.426;1.500;2023-02-01T07:02:01;11.10;88.90
62363;DHT22;48396;48.426;1.500;2023-02-01T07:04:26;11.10;89.00
62363;DHT22;48396;48.426;1.500;2023-02-01T07:06:52;11.20;89.10
62363;DHT22;48396;48.426;1.500;2023-02-01T07:09:18;11.20;89.00
62363;DHT22;48396;48.426;1.500;2023-02-01T07:11:44;11.20;88.80
62363;DHT22;48396;48.426;1.500;2023-02-01T07:14:10;11.00;89.10
62363;DHT22;48396;48.426;1.500;2023-02-01T07:16:36;11.00;89.10
62363;DHT22;48396;48.426;1.500;2023-02-01T07:19:02;10.90;89.80
62363;DHT22;48396;48.426;1.500;2023-02-01T07:21:28;10.90;89.40
62363;DHT22;48396;48.426;1.500;2023-02-01T07:23:54;11.00;89.30
62363;DHT22;48396;48.426;1.500;2023-02-01T07:26:20;10.90;89.20
62363;DHT22;48396;48.426;1.500;2023-02-01T07:28:46;10.90;89.30
62363;DHT22;48396;48.426;1.500;2023-02-01T07:31:17;10.90;89.70
62363;DHT22;48396;48.426;1.500;2023-02-01T07:33:48;10.90;89.70
62363;DHT22;48396;48.426;1.500;2023-02-01T07:36:17;10.80;89.80
62363;DHT22;48396;48.426;1.500;2023-02-01T07:38:43;10.80;89.90
62363;DHT22;48396;48.426;1.500;2023-02-01T07:41:09;10.90;89.80
62363;DHT22;48396;48.426;1.500;2023-02-01T07:43:35;11.00;89.60
62363;DHT22;48396;48.426;1.500;2023-02-01T07:46:03;11.00;89.50
62363;DHT22;48396;48.426;1.500;2023-02-01T07:48:29;11.00;89.30
62363;DHT22;48396;48.426;1.500;2023-02-01T07:51:08;11.00;89.40
62363;DHT22;48396;48.426;1.500;2023-02-01T07:53:34;11.00;89.30
62363;DHT22;48396;48.426;1.500;2023-02-01T07:56:01;11.00;89.40
62363;DHT22;48396;48.426;1.500;2023-02-01T07:58:27;11.00;89.40
62363;DHT22;48396;48.426;1.500;2023-02-01T08:00:54;11.10;89.30
62363;DHT22;48396;48.426;1.500;2023-02-01T08:03:38;11.00;89.20
62363;DHT22;48396;48.426;1.500;2023-02-01T08:06:05;11.00;89.30
62363;DHT22;48396;48.426;1.500;2023-02-01T08:08:32;11.00;89.40
62363;DHT22;48396;48.426;1.500;2023-02-01T08:10:59;11.10;89.30
62363;DHT22;48396;48.426;1.500;2023-02-01T08:13:25;11.10;89.30
62363;DHT22;48396;48.426;1.500;2023-02-01T08:15:51;11.10;88.90
62363;DHT22;48396;48.426;1.500;2023-02-01T08:18:16;11.20;89.30
62363;DHT22;48396;48.426;1.500;2023-02-01T08:20:44;11.30;89.20
62363;DHT22;48396;48.426;1.500;2023-02-01T08:23:11;11.30;89.10
62363;DHT22;48396;48.426;1.500;2023-02-01T08:25:37;11.30;89.00
62363;DHT22;48396;48.426;1.500;2023-02-01T08:28:05;11.30;88.90
62363;DHT22;48396;48.426;1.500;2023-02-01T08:30:31;11.40;89.00
62363;DHT22;48396;48.426;1.500;2023-02-01T08:32:57;11.40;88.80
62363;DHT22;48396;48.426;1.500;2023-02-01T08:35:24;11.30;88.60
62363;DHT22;48396;48.426;1.500;2023-02-01T08:37:50;11.30;88.40
62363;DHT22;48396;48.426;1.500;2023-02-01T08:40:16;11.30;88.70
62363;DHT22;48396;48.426;1.500;2023-02-01T08:42:42;11.20;88.60
62363;DHT22;48396;48.426;1.500;2023-02-01T08:45:19;11.20;88.80
62363;DHT22;48396;48.426;1.500;2023-02-01T08:47:45;11.20;89.10
62363;DHT22;48396;48.426;1.500;2023-02-01T08:50:12;11.30;88.90
62363;DHT22;48396;48.426;1.500;2023-02-01T08:52:38;11.30;89.00
62363;DHT22;48396;48.426;1.500;2023-02-01T08:55:05;11.20;88.80
62363;DHT22;48396;48.426;1.500;2023-02-01T08:57:32;11.10;89.20
62363;DHT22;48396;48.426;1.500;2023-02-01T08:59:58;11.00;89.40
62363;DHT22;48396;48.426;1.500;2023-02-01T09:02:25;11.10;89.60
62363;DHT22;48396;48.426;1.500;2023-02-01T09:04:51;11.20;89.60
62363;DHT22;48396;48.426;1.500;2023-02-01T09:07:17;11.30;89.40
62363;DHT22;48396;48.426;1.500;2023-02-01T09:09:44;11.30;89.30
62363;DHT22;48396;48.426;1.500;2023-02-01T09:12:10;11.30;89.00
62363;DHT22;48396;48.426;1.500;2023-02-01T09:14:36;11.30;89.10
62363;DHT22;48396;48.426;1.500;2023-02-01T09:17:02;11.40;89.10
62363;DHT22;48396;48.426;1.500;2023-02-01T09:19:28;11.40;88.90
62363;DHT22;48396;48.426;1.500;2023-02-01T09:21:54;11.40;88.50
62363;DHT22;48396;48.426;1.500;2023-02-01T09:24:20;11.40;88.70
62363;DHT22;48396;48.426;1.500;2023-02-01T09:26:45;11.40;88.50
62363;DHT22;48396;48.426;1.500;2023-02-01T09:29:11;11.40;88.30
62363;DHT22;48396;48.426;1.500;2023-02-01T09:31:37;11.50;88.40
62363;DHT22;48396;48.426;1.500;2023-02-01T09:34:04;11.50;88.20
62363;DHT22;48396;48.426;1.500;2023-02-01T09:36:30;11.50;88.90
62363;DHT22;48396;48.426;1.500;2023-02-01T09:38:56;11.60;88.20
62363;DHT22;48396;48.426;1.500;2023-02-01T09:41:34;11.50;88.10
62363;DHT22;48396;48.426;1.500;2023-02-01T09:46:45;11.60;88.20
62363;DHT22;48396;48.426;1.500;2023-02-01T09:49:21;11.60;88.20
62363;DHT22;48396;48.426;1.500;2023-02-01T09:51:49;11.60;88.30
62363;DHT22;48396;48.426;1.500;2023-02-01T09:54:22;11.70;88.30
62363;DHT22;48396;48.426;1.500;2023-02-01T09:57:03;11.70;88.10
62363;DHT22;48396;48.426;1.500;2023-02-01T10:02:02;11.70;88.00
62363;DHT22;48396;48.426;1.500;2023-02-01T10:04:28;11.70;88.10
62363;DHT22;48396;48.426;1.500;2023-02-01T10:07:17;11.80;88.00
62363;DHT22;48396;48.426;1.500;2023-02-01T10:15:30;11.80;88.00
62363;DHT22;48396;48.426;1.500;2023-02-01T10:23:51;11.70;87.70
62363;DHT22;48396;48.426;1.500;2023-02-01T10:26:25;11.70;87.70
62363;DHT22;48396;48.426;1.500;2023-02-01T10:28:56;11.70;87.70
62363;DHT22;48396;48.426;1.500;2023-02-01T10:31:25;11.70;87.60
62363;DHT22;48396;48.426;1.500;2023-02-01T10:33:59;11.60;87.50
62363;DHT22;48396;48.426;1.500;2023-02-01T10:36:32;11.60;87.90
62363;DHT22;48396;48.426;1.500;2023-02-01T10:39:02;11.60;87.90
62363;DHT22;48396;48.426;1.500;2023-02-01T10:41:34;11.70;88.00
62363;DHT22;48396;48.426;1.500;2023-02-01T10:44:03;11.80;88.20
62363;DHT22;48396;48.426;1.500;2023-02-01T10:46:31;11.90;88.10
62363;DHT22;48396;48.426;1.500;2023-02-01T10:49:00;11.80;87.80
62363;DHT22;48396;48.426;1.500;2023-02-01T10:51:28;11.80;88.00
62363;DHT22;48396;48.426;1.500;2023-02-01T10:54:18;11.80;88.10
62363;DHT22;48396;48.426;1.500;2023-02-01T10:56:46;11.90;88.10
62363;DHT22;48396;48.426;1.500;2023-02-01T10:59:21;11.90;87.90
62363;DHT22;48396;48.426;1.500;2023-02-01T11:01:49;12.00;88.10
62363;DHT22;48396;48.426;1.500;2023-02-01T11:04:17;11.90;88.20
62363;DHT22;48396;48.426;1.500;2023-02-01T11:06:52;11.80;88.30
62363;DHT22;48396;48.426;1.500;2023-02-01T11:09:21;11.80;88.80
62363;DHT22;48396;48.426;1.500;2023-02-01T11:14:18;12.00;88.30
62363;DHT22;48396;48.426;1.500;2023-02-01T11:16:48;12.00;88.30
62363;DHT22;48396;48.426;1.500;2023-02-01T11:19:16;12.00;88.10
62363;DHT22;48396;48.426;1.500;2023-02-01T11:21:43;12.10;88.30
62363;DHT22;48396;48.426;1.500;2023-02-01T11:24:23;12.10;87.80
62363;DHT22;48396;48.426;1.500;2023-02-01T11:26:53;12.10;87.20
62363;DHT22;48396;48.426;1.500;2023-02-01T11:29:21;12.10;87.30
62363;DHT22;48396;48.426;1.500;2023-02-01T11:31:58;12.20;87.00
62363;DHT22;48396;48.426;1.500;2023-02-01T11:34:29;12.20;86.60
62363;DHT22;48396;48.426;1.500;2023-02-01T11:37:00;12.10;86.60
62363;DHT22;48396;48.426;1.500;2023-02-01T11:39:29;12.10;87.00
62363;DHT22;48396;48.426;1.500;2023-02-01T11:42:16;12.00;86.70
62363;DHT22;48396;48.426;1.500;2023-02-01T11:44:44;12.00;87.30
62363;DHT22;48396;48.426;1.500;2023-02-01T11:47:30;12.10;87.40
62363;DHT22;48396;48.426;1.500;2023-02-01T11:50:02;12.20;86.70
62363;DHT22;48396;48.426;1.500;2023-02-01T12:00:47;12.30;86.70
62363;DHT22;48396;48.426;1.500;2023-02-01T12:12:25;12.30;86.10
62363;DHT22;48396;48.426;1.500;2023-02-01T12:15:02;12.30;85.70
62363;DHT22;48396;48.426;1.500;2023-02-01T12:26:05;12.30;84.50
62363;DHT22;48396;48.426;1.500;2023-02-01T12:39:37;12.70;83.00
62363;DHT22;48396;48.426;1.500;2023-02-01T12:42:24;12.70;82.90
62363;DHT22;48396;48.426;1.500;2023-02-01T12:45:02;12.60;82.20
62363;DHT22;48396;48.426;1.500;2023-02-01T12:47:38;12.50;81.40
62363;DHT22;48396;48.426;1.500;2023-02-01T12:50:22;12.50;81.80
62363;DHT22;48396;48.426;1.500;2023-02-01T12:52:52;12.50;81.90
62363;DHT22;48396;48.426;1.500;2023-02-01T12:55:41;12.50;82.10
62363;DHT22;48396;48.426;1.500;2023-02-01T12:58:22;12.50;81.20
62363;DHT22;48396;48.426;1.500;2023-02-01T13:01:00;12.60;81.60
62363;DHT22;48396;48.426;1.500;2023-02-01T13:03:41;12.70;81.60
62363;DHT22;48396;48.426;1.500;2023-02-01T13:06:31;12.70;80.90
62363;DHT22;48396;48.426;1.500;2023-02-01T13:09:18;12.60;80.50
62363;DHT22;48396;48.426;1.500;2023-02-01T13:11:46;12.60;80.80
62363;DHT22;48396;48.426;1.500;2023-02-01T13:17:05;12.80;81.00
62363;DHT22;48396;48.426;1.500;2023-02-01T13:25:03;13.00;81.50
62363;DHT22;48396;48.426;1.500;2023-02-01T13:27:31;13.00;81.10
62363;DHT22;48396;48.426;1.500;2023-02-01T13:30:00;13.00;80.50
62363;DHT22;48396;48.426;1.500;2023-02-01T13:35:14;13.00;80.70
62363;DHT22;48396;48.426;1.500;2023-02-01T13:38:01;13.00;80.70
62363;DHT22;48396;48.426;1.500;2023-02-01T13:40:44;12.90;80.20
62363;DHT22;48396;48.426;1.500;2023-02-01T13:43:21;12.80;79.80
62363;DHT22;48396;48.426;1.500;2023-02-01T13:45:52;12.80;79.60
62363;DHT22;48396;48.426;1.500;2023-02-01T13:48:51;12.70;79.70
62363;DHT22;48396;48.426;1.500;2023-02-01T13:53:57;12.80;80.30
62363;DHT22;48396;48.426;1.500;2023-02-01T13:56:24;12.80;80.20
62363;DHT22;48396;48.426;1.500;2023-02-01T13:58:51;12.80;80.60
62363;DHT22;48396;48.426;1.500;2023-02-01T14:04:00;12.90;80.50
62363;DHT22;48396;48.426;1.500;2023-02-01T14:09:12;12.80;80.00
62363;DHT22;48396;48.426;1.500;2023-02-01T14:11:53;12.90;80.00
62363;DHT22;48396;48.426;1.500;2023-02-01T14:21:50;12.90;79.70
62363;DHT22;48396;48.426;1.500;2023-02-01T14:29:38;13.00;79.80
62363;DHT22;48396;48.426;1.500;2023-02-01T14:32:21;13.00;80.10
62363;DHT22;48396;48.426;1.500;2023-02-01T14:44:44;13.00;80.50
62363;DHT22;48396;48.426;1.500;2023-02-01T14:52:23;12.90;80.80
62363;DHT22;48396;48.426;1.500;2023-02-01T14:54:56;12.90;80.00
62363;DHT22;48396;48.426;1.500;2023-02-01T14:57:25;12.90;80.00
62363;DHT22;48396;48.426;1.500;2023-02-01T15:05:56;12.90;79.60
62363;DHT22;48396;48.426;1.500;2023-02-01T15:08:29;13.00;79.70
62363;DHT22;48396;48.426;1.500;2023-02-01T15:10:57;12.90;79.40
62363;DHT22;48396;48.426;1.500;2023-02-01T15:13:26;12.90;79.20
62363;DHT22;48396;48.426;1.500;2023-02-01T15:16:13;12.90;79.50
62363;DHT22;48396;48.426;1.500;2023-02-01T15:18:40;12.90;79.60
62363;DHT22;48396;48.426;1.500;2023-02-01T15:21:15;13.00;80.10
62363;DHT22;48396;48.426;1.500;2023-02-01T15:23:41;13.00;78.90
62363;DHT22;48396;48.426;1.500;2023-02-01T15:26:07;13.00;78.50
62363;DHT22;48396;48.426;1.500;2023-02-01T15:28:33;13.10;78.80
62363;DHT22;48396;48.426;1.500;2023-02-01T15:31:01;13.00;78.60
62363;DHT22;48396;48.426;1.500;2023-02-01T15:33:29;13.10;79.10
62363;DHT22;48396;48.426;1.500;2023-02-01T15:36:11;13.20;79.10
62363;DHT22;48396;48.426;1.500;2023-02-01T15:38:43;13.20;78.90
62363;DHT22;48396;48.426;1.500;2023-02-01T15:41:17;13.20;79.00
62363;DHT22;48396;48.426;1.500;2023-02-01T15:46:16;13.00;79.50
62363;DHT22;48396;48.426;1.500;2023-02-01T15:48:51;13.00;79.60
62363;DHT22;48396;48.426;1.500;2023-02-01T15:51:22;13.10;79.70
62363;DHT22;48396;48.426;1.500;2023-02-01T15:54:24;13.10;79.60
62363;DHT22;48396;48.426;1.500;2023-02-01T15:56:50;13.10;79.90
62363;DHT22;48396;48.426;1.500;2023-02-01T15:59:23;13.10;79.80
62363;DHT22;48396;48.426;1.500;2023-02-01T16:01:49;13.20;79.80
62363;DHT22;48396;48.426;1.500;2023-02-01T16:06:54;13.10;80.20
62363;DHT22;48396;48.426;1.500;2023-02-01T16:09:22;13.20;80.20
62363;DHT22;48396;48.426;1.500;2023-02-01T16:11:56;13.30;80.10
62363;DHT22;48396;48.426;1.500;2023-02-01T16:14:22;13.30;80.30
62363;DHT22;48396;48.426;1.500;2023-02-01T16:16:49;13.30;80.30
62363;DHT22;48396;48.426;1.500;2023-02-01T16:19:15;13.40;81.00
62363;DHT22;48396;48.426;1.500;2023-02-01T16:21:41;13.50;80.30
62363;DHT22;48396;48.426;1.500;2023-02-01T16:24:07;13.50;80.20
62363;DHT22;48396;48.426;1.500;2023-02-01T16:26:34;13.50;80.20
62363;DHT22;48396;48.426;1.500;2023-02-01T16:29:00;13.40;80.20
62363;DHT22;48396;48.426;1.500;2023-02-01T16:31:30;13.30;80.10
62363;DHT22;48396;48.426;1.500;2023-02-01T16:33:57;13.20;80.70
62363;DHT22;48396;48.426;1.500;2023-02-01T16:36:24;13.20;80.90
62363;DHT22;48396;48.426;1.500;2023-02-01T16:38:50;13.20;81.00
62363;DHT22;48396;48.426;1.500;2023-02-01T16:41:20;13.10;81.60
62363;DHT22;48396;48.426;1.500;2023-02-01T16:43:50;13.00;82.20
62363;DHT22;48396;48.426;1.500;2023-02-01T16:46:19;13.00;82.40
62363;DHT22;48396;48.426;1.500;2023-02-01T16:48:54;12.90;82.60
62363;DHT22;48396;48.426;1.500;2023-02-01T16:51:21;12.90;82.60
62363;DHT22;48396;48.426;1.500;2023-02-01T16:53:48;12.90;82.60
62363;DHT22;48396;48.426;1.500;2023-02-01T16:56:20;13.00;83.30
62363;DHT22;48396;48.426;1.500;2023-02-01T16:58:46;13.00;82.60
62363;DHT22;48396;48.426;1.500;2023-02-01T17:01:15;12.90;83.20
62363;DHT22;48396;48.426;1.500;2023-02-01T17:03:42;12.90;83.60
62363;DHT22;48396;48.426;1.500;2023-02-01T17:06:12;12.70;84.30
62363;DHT22;48396;48.426;1.500;2023-02-01T17:08:41;12.60;84.60
62363;DHT22;48396;48.426;1.500;2023-02-01T17:11:10;12.60;84.60
62363;DHT22;48396;48.426;1.500;2023-02-01T17:13:36;12.60;84.80
62363;DHT22;48396;48.426;1.500;2023-02-01T17:16:03;12.70;84.90
62363;DHT22;48396;48.426;1.500;2023-02-01T17:18:33;12.70;85.10
62363;DHT22;48396;48.426;1.500;2023-02-01T17:21:00;12.60;85.60
62363;DHT22;48396;48.426;1.500;2023-02-01T17:23:28;12.60;85.60
62363;DHT22;48396;48.426;1.500;2023-02-01T17:25:54;12.70;85.50
62363;DHT22;48396;48.426;1.500;2023-02-01T17:28:20;12.50;86.00
62363;DHT22;48396;48.426;1.500;2023-02-01T17:30:47;12.60;85.90
62363;DHT22;48396;48.426;1.500;2023-02-01T17:35:47;12.50;86.70
62363;DHT22;48396;48.426;1.500;2023-02-01T17:38:13;12.50;87.40
62363;DHT22;48396;48.426;1.500;2023-02-01T17:40:40;12.40;88.00
62363;DHT22;48396;48.426;1.500;2023-02-01T17:43:11;12.30;88.40
62363;DHT22;48396;48.426;1.500;2023-02-01T17:45:53;12.20;88.80
62363;DHT22;48396;48.426;1.500;2023-02-01T17:48:20;12.30;89.00
62363;DHT22;48396;48.426;1.500;2023-02-01T17:50:48;12.30;89.30
62363;DHT22;48396;48.426;1.500;2023-02-01T17:53:17;12.30;89.20
62363;DHT22;48396;48.426;1.500;2023-02-01T17:55:45;12.30;89.70
62363;DHT22;48396;48.426;1.500;2023-02-01T17:58:12;12.20;90.00
62363;DHT22;48396;48.426;1.500;2023-02-01T18:00:39;12.20;90.20
62363;DHT22;48396;48.426;1.500;2023-02-01T18:03:06;12.20;90.20
62363;DHT22;48396;48.426;1.500;2023-02-01T18:05:40;12.20;90.20
62363;DHT22;48396;48.426;1.500;2023-02-01T18:08:07;12.30;89.80
62363;DHT22;48396;48.426;1.500;2023-02-01T18:10:34;12.40;90.00
62363;DHT22;48396;48.426;1.500;2023-02-01T18:13:01;12.20;90.30
62363;DHT22;48396;48.426;1.500;2023-02-01T18:15:29;12.20;90.40
62363;DHT22;48396;48.426;1.500;2023-02-01T18:17:56;12.20;90.30
62363;DHT22;48396;48.426;1.500;2023-02-01T18:20:23;12.20;90.30
62363;DHT22;48396;48.426;1.500;2023-02-01T18:22:50;12.20;90.30
62363;DHT22;48396;48.426;1.500;2023-02-01T18:25:19;12.10;90.50